Time;durP1;ratioP1;P1;durP2;ratioP2;P2;SDS_P1;SDS_P2;PMS_P1;PMS_P2;Temp;Humidity;BMP_temperature;BMP_pressure;BME280_temperature;BME280_humidity;BME280_pressure;Samples;Min_cycle;Max_cycle;Signal;HPM_P1;HPM_P2
2023/12/25 00:00:40;;;;;;;;;;;24.80;99.90;;;;;;4954052;28;19979;-75
2023/12/25 00:03:06;;;;;;;;;;;24.90;99.90;;;;;;4971610;28;19910;-74
2023/12/25 00:05:33;;;;;;;;;;;24.90;99.90;;;;;;4955012;28;19918;-76
2023/12/25 00:08:00;;;;;;;;;;;25.20;99.90;;;;;;4968537;28;19973;-74
2023/12/25 00:10:26;;;;;;;;;;;25.50;99.90;;;;;;4972053;28;19914;-73
2023/12/25 00:12:53;;;;;;;;;;;25.60;99.90;;;;;;4962816;28;19911;-74
2023/12/25 00:15:19;;;;;;;;;;;25.60;99.90;;;;;;4961999;28;19921;-74
2023/12/25 00:17:46;;;;;;;;;;;25.80;99.90;;;;;;4962604;28;19915;-75
2023/12/25 00:20:13;;;;;;;;;;;25.90;99.90;;;;;;4971613;28;19922;-81
2023/12/25 00:22:40;;;;;;;;;;;26.20;99.90;;;;;;4951072;28;19937;-76
2023/12/25 00:25:07;;;;;;;;;;;26.30;99.90;;;;;;4951111;28;19910;-77
2023/12/25 00:27:33;;;;;;;;;;;26.40;99.90;;;;;;4968573;28;19914;-80
2023/12/25 00:30:00;;;;;;;;;;;26.40;99.90;;;;;;4952915;28;19957;-84
2023/12/25 00:32:26;;;;;;;;;;;26.30;99.90;;;;;;4967356;28;19940;-76
2023/12/25 00:34:53;;;;;;;;;;;26.40;99.90;;;;;;4971766;28;19972;-76
2023/12/25 00:37:20;;;;;;;;;;;26.40;99.90;;;;;;4971253;28;20013;-76
2023/12/25 00:39:47;;;;;;;;;;;26.30;99.90;;;;;;4966714;28;19915;-80
2023/12/25 00:42:13;;;;;;;;;;;26.40;99.90;;;;;;4961988;28;19937;-79
2023/12/25 00:44:40;;;;;;;;;;;26.60;99.90;;;;;;4952454;28;19921;-78
2023/12/25 00:47:06;;;;;;;;;;;26.80;99.90;;;;;;4958695;28;19914;-77
2023/12/25 00:49:33;;;;;;;;;;;26.90;99.90;;;;;;4962600;28;20398;-74
2023/12/25 00:52:00;;;;;;;;;;;26.90;99.90;;;;;;4960377;28;19911;-76
2023/12/25 00:54:27;;;;;;;;;;;27.10;99.90;;;;;;4984965;28;19976;-75
2023/12/25 00:56:56;;;;;;;;;;;27.00;99.90;;;;;;4963182;28;20302;-81
2023/12/25 00:59:23;;;;;;;;;;;27.20;99.90;;;;;;4965035;28;20378;-75
2023/12/25 01:01:50;;;;;;;;;;;27.20;99.90;;;;;;4966869;28;19945;-75
2023/12/25 01:04:18;;;;;;;;;;;27.00;99.90;;;;;;4961546;28;19915;-78
2023/12/25 01:06:47;;;;;;;;;;;26.80;99.90;;;;;;4970624;28;19922;-78
2023/12/25 01:09:14;;;;;;;;;;;26.90;99.90;;;;;;4966351;28;19914;-75
2023/12/25 01:11:41;;;;;;;;;;;27.10;99.90;;;;;;4963409;28;20446;-76
2023/12/25 01:14:08;;;;;;;;;;;27.40;99.90;;;;;;4963214;28;19921;-74
2023/12/25 01:16:35;;;;;;;;;;;27.70;99.90;;;;;;4972492;28;20051;-74
2023/12/25 01:19:02;;;;;;;;;;;27.90;99.90;;;;;;4960813;28;19950;-74
2023/12/25 01:21:29;;;;;;;;;;;28.20;99.90;;;;;;4964606;28;19913;-74
2023/12/25 01:23:55;;;;;;;;;;;28.20;99.10;;;;;;4963950;28;20379;-74
2023/12/25 01:26:22;;;;;;;;;;;28.20;99.90;;;;;;4960531;28;20251;-76
2023/12/25 01:28:49;;;;;;;;;;;28.50;99.90;;;;;;4956274;28;19915;-79
2023/12/25 01:31:15;;;;;;;;;;;28.80;99.50;;;;;;4965473;28;19971;-78
2023/12/25 01:33:42;;;;;;;;;;;29.10;99.50;;;;;;4963586;28;19914;-78
2023/12/25 01:36:08;;;;;;;;;;;29.50;99.10;;;;;;4962969;28;19918;-76
2023/12/25 01:38:35;;;;;;;;;;;29.50;98.30;;;;;;4963165;28;19926;-76
2023/12/25 01:41:02;;;;;;;;;;;29.70;98.10;;;;;;4960776;28;19914;-76
2023/12/25 01:43:28;;;;;;;;;;;29.90;97.40;;;;;;4971224;28;19918;-78
2023/12/25 01:45:55;;;;;;;;;;;30.20;97.80;;;;;;4966958;28;20436;-78
2023/12/25 01:48:23;;;;;;;;;;;30.60;98.00;;;;;;4961266;28;20730;-74
2023/12/25 01:50:50;;;;;;;;;;;30.80;96.10;;;;;;4960465;28;20003;-74
2023/12/25 01:53:17;;;;;;;;;;;30.80;95.30;;;;;;4966564;28;20143;-72
2023/12/25 01:55:44;;;;;;;;;;;30.90;96.10;;;;;;4976047;28;19920;-76
2023/12/25 01:58:10;;;;;;;;;;;31.10;95.00;;;;;;4960080;28;20355;-74
2023/12/25 02:00:37;;;;;;;;;;;31.00;94.50;;;;;;4963361;28;19911;-73
2023/12/25 02:03:04;;;;;;;;;;;31.00;95.20;;;;;;4966469;28;19919;-76
2023/12/25 02:05:31;;;;;;;;;;;31.20;95.40;;;;;;4964446;28;20018;-76
2023/12/25 02:07:58;;;;;;;;;;;31.20;94.40;;;;;;4962655;28;20189;-75
2023/12/25 02:10:27;;;;;;;;;;;31.40;95.00;;;;;;4954801;28;20375;-76
2023/12/25 02:12:54;;;;;;;;;;;31.40;94.30;;;;;;4953362;28;19911;-78
2023/12/25 02:15:20;;;;;;;;;;;31.40;93.50;;;;;;4956522;28;19915;-80
2023/12/25 02:17:47;;;;;;;;;;;31.20;94.00;;;;;;4970754;28;20005;-77
2023/12/25 02:20:14;;;;;;;;;;;30.90;94.70;;;;;;4958677;28;19910;-75
2023/12/25 02:22:41;;;;;;;;;;;30.90;94.30;;;;;;4953842;28;19930;-74
2023/12/25 02:25:34;;;;;;;;;;;30.70;95.10;;;;;;4973848;28;19911;-77
2023/12/25 02:28:01;;;;;;;;;;;30.90;94.90;;;;;;4975293;28;20390;-73
2023/12/25 02:30:28;;;;;;;;;;;31.00;94.40;;;;;;4969469;28;19954;-75
2023/12/25 02:32:54;;;;;;;;;;;30.90;93.60;;;;;;4969917;28;19922;-75
2023/12/25 02:35:21;;;;;;;;;;;30.70;94.90;;;;;;4966322;28;19921;-75
2023/12/25 02:37:48;;;;;;;;;;;30.80;94.10;;;;;;4966684;28;19914;-77
2023/12/25 02:40:15;;;;;;;;;;;31.10;94.30;;;;;;4961651;28;19966;-77
2023/12/25 02:42:41;;;;;;;;;;;31.00;93.60;;;;;;4965035;28;19914;-75
2023/12/25 02:45:08;;;;;;;;;;;31.10;94.20;;;;;;4958018;28;19960;-77
2023/12/25 02:47:35;;;;;;;;;;;31.20;94.30;;;;;;4973759;28;19917;-72
2023/12/25 02:50:01;;;;;;;;;;;31.00;94.50;;;;;;4973691;28;19910;-74
2023/12/25 02:52:28;;;;;;;;;;;31.00;93.90;;;;;;4954369;28;19930;-74
2023/12/25 02:54:54;;;;;;;;;;;31.20;93.60;;;;;;4962396;28;20003;-76
2023/12/25 02:57:21;;;;;;;;;;;30.90;95.20;;;;;;4960584;28;20060;-76
2023/12/25 02:59:48;;;;;;;;;;;31.00;94.30;;;;;;4954485;28;19915;-73
2023/12/25 03:02:14;;;;;;;;;;;31.40;95.70;;;;;;4954427;28;19915;-75
2023/12/25 03:04:41;;;;;;;;;;;32.30;94.90;;;;;;4954037;28;19910;-74
2023/12/25 03:07:08;;;;;;;;;;;32.30;93.40;;;;;;4954083;28;19917;-73
2023/12/25 03:09:34;;;;;;;;;;;32.70;92.90;;;;;;4953912;28;19947;-73
2023/12/25 03:12:01;;;;;;;;;;;33.20;92.50;;;;;;4956831;28;19973;-73
2023/12/25 03:14:27;;;;;;;;;;;33.70;92.80;;;;;;4972541;28;19971;-74
2023/12/25 03:16:54;;;;;;;;;;;34.30;92.70;;;;;;4972814;28;19918;-75
2023/12/25 03:19:21;;;;;;;;;;;34.80;90.40;;;;;;4973005;28;20355;-74
2023/12/25 03:21:47;;;;;;;;;;;34.50;90.40;;;;;;4972010;28;19926;-73
2023/12/25 03:24:14;;;;;;;;;;;35.00;89.60;;;;;;4973320;28;20371;-75
2023/12/25 03:26:41;;;;;;;;;;;35.10;88.90;;;;;;4972867;28;19914;-78
2023/12/25 03:29:08;;;;;;;;;;;35.30;88.90;;;;;;4973077;28;20297;-74
2023/12/25 03:31:34;;;;;;;;;;;35.30;90.60;;;;;;4971900;28;19960;-75
2023/12/25 03:34:01;;;;;;;;;;;35.40;89.30;;;;;;4972774;28;20054;-72
2023/12/25 03:36:27;;;;;;;;;;;35.20;90.40;;;;;;4972542;28;19924;-74
2023/12/25 03:38:54;;;;;;;;;;;35.50;90.50;;;;;;4969319;28;19921;-73
2023/12/25 03:41:21;;;;;;;;;;;35.40;90.50;;;;;;4953143;28;20375;-74
2023/12/25 03:43:47;;;;;;;;;;;35.80;90.90;;;;;;4953829;28;19918;-75
2023/12/25 03:46:14;;;;;;;;;;;35.50;90.50;;;;;;4971827;28;19914;-74
2023/12/25 03:48:41;;;;;;;;;;;35.90;90.60;;;;;;4972490;28;20371;-74
2023/12/25 03:51:08;;;;;;;;;;;36.50;89.20;;;;;;4968771;28;19917;-76
2023/12/25 03:53:34;;;;;;;;;;;36.80;89.30;;;;;;4953260;28;19953;-73
2023/12/25 03:56:04;;;;;;;;;;;36.70;89.10;;;;;;4953300;28;19925;-74
2023/12/25 03:58:31;;;;;;;;;;;37.00;88.80;;;;;;4953277;28;19919;-75
2023/12/25 04:00:57;;;;;;;;;;;36.70;87.10;;;;;;4953326;28;19915;-75
2023/12/25 04:03:24;;;;;;;;;;;36.00;89.70;;;;;;4953500;28;19910;-75
2023/12/25 04:05:50;;;;;;;;;;;36.20;89.60;;;;;;4953225;28;19910;-74
2023/12/25 04:08:17;;;;;;;;;;;36.10;88.70;;;;;;4967061;28;20371;-75
2023/12/25 04:10:44;;;;;;;;;;;35.20;90.60;;;;;;4970409;28;19914;-74
2023/12/25 04:13:10;;;;;;;;;;;34.80;91.80;;;;;;4952922;28;19911;-74
2023/12/25 04:15:37;;;;;;;;;;;35.80;90.50;;;;;;4953191;28;19918;-76
2023/12/25 04:18:04;;;;;;;;;;;36.50;88.10;;;;;;4953101;28;20355;-73
2023/12/25 04:20:30;;;;;;;;;;;35.10;90.40;;;;;;4952952;28;19915;-75
2023/12/25 04:22:57;;;;;;;;;;;34.10;91.40;;;;;;4952767;28;19923;-74
2023/12/25 04:25:23;;;;;;;;;;;33.90;91.70;;;;;;4953868;28;19918;-75
2023/12/25 04:27:51;;;;;;;;;;;33.30;92.40;;;;;;4971692;28;19925;-76
2023/12/25 04:30:18;;;;;;;;;;;32.70;92.60;;;;;;4972059;28;19910;-74
2023/12/25 04:32:45;;;;;;;;;;;32.00;93.80;;;;;;4971423;28;19922;-75
2023/12/25 04:35:11;;;;;;;;;;;31.40;94.50;;;;;;4970588;28;19911;-75
2023/12/25 04:37:38;;;;;;;;;;;30.80;96.20;;;;;;4972226;28;20327;-74
2023/12/25 04:40:05;;;;;;;;;;;30.30;96.10;;;;;;4971670;28;19910;-74
2023/12/25 04:42:31;;;;;;;;;;;29.80;97.40;;;;;;4971849;28;19911;-75
2023/12/25 04:44:58;;;;;;;;;;;29.50;97.90;;;;;;4971688;28;19917;-75
2023/12/25 04:47:25;;;;;;;;;;;29.20;99.00;;;;;;4972039;28;19914;-74
2023/12/25 04:49:51;;;;;;;;;;;28.80;99.60;;;;;;4971855;28;20388;-75
2023/12/25 04:52:18;;;;;;;;;;;28.60;99.90;;;;;;4971087;28;19968;-73
2023/12/25 04:54:44;;;;;;;;;;;28.10;99.90;;;;;;4971605;28;19917;-74
2023/12/25 04:57:11;;;;;;;;;;;27.90;99.90;;;;;;4971691;28;20286;-73
2023/12/25 04:59:38;;;;;;;;;;;27.70;99.90;;;;;;4971155;28;19914;-74
2023/12/25 05:02:04;;;;;;;;;;;27.90;99.90;;;;;;4971392;28;20421;-74
2023/12/25 05:04:32;;;;;;;;;;;28.10;99.90;;;;;;4971475;28;19910;-74
2023/12/25 05:06:58;;;;;;;;;;;28.30;99.90;;;;;;4971611;28;20252;-74
2023/12/25 05:09:25;;;;;;;;;;;28.50;99.90;;;;;;4971678;28;19910;-77
2023/12/25 05:11:51;;;;;;;;;;;28.80;99.90;;;;;;4969802;28;19921;-72
2023/12/25 05:14:18;;;;;;;;;;;28.80;99.90;;;;;;4971027;28;19914;-73
2023/12/25 05:16:45;;;;;;;;;;;28.90;99.90;;;;;;4971404;28;19918;-74
2023/12/25 05:19:12;;;;;;;;;;;28.80;99.90;;;;;;4971282;28;19911;-74
2023/12/25 05:21:39;;;;;;;;;;;28.60;99.90;;;;;;4971868;28;19918;-72
2023/12/25 05:24:06;;;;;;;;;;;28.50;99.90;;;;;;4971233;28;19926;-72
2023/12/25 05:26:32;;;;;;;;;;;28.40;99.90;;;;;;4970958;28;19991;-73
2023/12/25 05:28:59;;;;;;;;;;;28.40;99.90;;;;;;4971291;28;20006;-73
2023/12/25 05:31:26;;;;;;;;;;;28.30;99.90;;;;;;4971069;28;19918;-73
2023/12/25 05:33:53;;;;;;;;;;;28.20;99.90;;;;;;4971169;28;20287;-75
2023/12/25 05:36:20;;;;;;;;;;;28.10;99.90;;;;;;4971175;28;19972;-73
2023/12/25 05:38:46;;;;;;;;;;;28.00;99.90;;;;;;4971607;28;19933;-71
2023/12/25 05:41:13;;;;;;;;;;;27.80;99.90;;;;;;4969923;28;19917;-72
2023/12/25 05:43:40;;;;;;;;;;;27.70;99.90;;;;;;4971178;28;20350;-73
2023/12/25 05:46:06;;;;;;;;;;;27.60;99.90;;;;;;4973085;28;20043;-72
2023/12/25 05:48:33;;;;;;;;;;;27.50;99.90;;;;;;4974495;28;19921;-73
2023/12/25 05:51:00;;;;;;;;;;;27.40;99.90;;;;;;4974544;28;20378;-74
2023/12/25 05:53:27;;;;;;;;;;;27.40;99.90;;;;;;4974374;28;19910;-73
2023/12/25 05:55:53;;;;;;;;;;;27.30;99.90;;;;;;4974390;28;19918;-74
2023/12/25 05:58:20;;;;;;;;;;;27.40;99.90;;;;;;4974685;28;19910;-74
2023/12/25 06:00:46;;;;;;;;;;;27.30;99.90;;;;;;4974366;28;19914;-73
2023/12/25 06:03:13;;;;;;;;;;;27.10;99.90;;;;;;4974178;28;20013;-74
2023/12/25 06:05:40;;;;;;;;;;;27.10;99.90;;;;;;4974127;28;20502;-73
2023/12/25 06:08:07;;;;;;;;;;;27.00;99.90;;;;;;4974002;28;19911;-75
2023/12/25 06:10:35;;;;;;;;;;;26.90;99.90;;;;;;4974035;28;19914;-74
2023/12/25 06:13:02;;;;;;;;;;;26.90;99.90;;;;;;4974008;28;20355;-75
2023/12/25 06:15:29;;;;;;;;;;;26.80;99.90;;;;;;4973675;28;19933;-72
2023/12/25 06:17:57;;;;;;;;;;;26.70;99.90;;;;;;4974009;28;19964;-72
2023/12/25 06:20:25;;;;;;;;;;;26.60;99.90;;;;;;4973917;28;19910;-73
2023/12/25 06:22:51;;;;;;;;;;;26.40;99.90;;;;;;4973715;28;19922;-72
2023/12/25 06:25:18;;;;;;;;;;;26.30;99.90;;;;;;4973856;28;19918;-73
2023/12/25 06:27:44;;;;;;;;;;;26.30;99.90;;;;;;4973062;28;19959;-72
2023/12/25 06:30:11;;;;;;;;;;;26.30;99.90;;;;;;4973569;28;19914;-74
2023/12/25 06:32:39;;;;;;;;;;;26.30;99.90;;;;;;4973686;28;19964;-75
2023/12/25 06:35:06;;;;;;;;;;;26.20;99.90;;;;;;4973386;28;19918;-73
2023/12/25 06:37:33;;;;;;;;;;;26.20;99.90;;;;;;4973485;28;19922;-74
2023/12/25 06:39:59;;;;;;;;;;;26.20;99.90;;;;;;4973566;28;19910;-74
2023/12/25 06:42:26;;;;;;;;;;;26.20;99.90;;;;;;4972356;28;20318;-74
2023/12/25 06:44:53;;;;;;;;;;;26.10;99.90;;;;;;4973601;28;19911;-73
2023/12/25 06:47:19;;;;;;;;;;;26.00;99.90;;;;;;4973361;28;20402;-73
2023/12/25 06:49:46;;;;;;;;;;;26.00;99.90;;;;;;4973448;28;19911;-74
2023/12/25 06:52:12;;;;;;;;;;;26.00;99.90;;;;;;4973318;28;19914;-74
2023/12/25 06:54:39;;;;;;;;;;;26.00;99.90;;;;;;4973701;28;19910;-74
2023/12/25 06:57:06;;;;;;;;;;;25.90;99.90;;;;;;4972023;28;19919;-75
2023/12/25 06:59:32;;;;;;;;;;;25.70;99.90;;;;;;4973397;28;20260;-74
2023/12/25 07:01:59;;;;;;;;;;;25.50;99.90;;;;;;4973253;28;19917;-74
2023/12/25 07:04:25;;;;;;;;;;;25.50;99.90;;;;;;4973001;28;20294;-73
2023/12/25 07:06:52;;;;;;;;;;;25.40;99.90;;;;;;4972988;28;19914;-76
2023/12/25 07:09:19;;;;;;;;;;;25.20;99.90;;;;;;4973093;28;19917;-75
2023/12/25 07:11:45;;;;;;;;;;;25.10;99.90;;;;;;4973246;28;19999;-73
2023/12/25 07:14:14;;;;;;;;;;;25.10;99.90;;;;;;4972942;28;20371;-73
2023/12/25 07:16:40;;;;;;;;;;;25.20;99.90;;;;;;4972864;28;19972;-74
2023/12/25 07:19:07;;;;;;;;;;;25.20;99.90;;;;;;4973129;28;19910;-72
2023/12/25 07:21:34;;;;;;;;;;;25.10;99.90;;;;;;4972746;28;20367;-75
2023/12/25 07:24:01;;;;;;;;;;;24.90;99.90;;;;;;4973325;28;19926;-76
2023/12/25 07:26:28;;;;;;;;;;;24.80;99.90;;;;;;4972943;28;19953;-75
2023/12/25 07:28:55;;;;;;;;;;;24.70;99.90;;;;;;4973246;28;19990;-74
2023/12/25 07:31:21;;;;;;;;;;;24.60;99.90;;;;;;4972851;28;19965;-72
2023/12/25 07:33:50;;;;;;;;;;;24.50;99.90;;;;;;4972655;28;19914;-76
2023/12/25 07:36:17;;;;;;;;;;;24.50;99.90;;;;;;4973013;28;19968;-74
2023/12/25 07:38:43;;;;;;;;;;;24.40;99.90;;;;;;4973020;28;19910;-73
2023/12/25 07:41:10;;;;;;;;;;;24.40;99.90;;;;;;4972455;28;20013;-74
2023/12/25 07:43:37;;;;;;;;;;;24.40;99.90;;;;;;4972607;28;19960;-75
2023/12/25 07:46:08;;;;;;;;;;;24.30;99.90;;;;;;4972654;28;19918;-73
2023/12/25 07:48:35;;;;;;;;;;;24.20;99.90;;;;;;4972788;28;19911;-72
2023/12/25 07:51:02;;;;;;;;;;;24.20;99.90;;;;;;4972547;28;19910;-73
2023/12/25 07:53:29;;;;;;;;;;;24.20;99.90;;;;;;4972299;28;19933;-73
2023/12/25 07:55:56;;;;;;;;;;;24.10;99.90;;;;;;4972516;28;19914;-73
2023/12/25 07:58:23;;;;;;;;;;;24.30;99.90;;;;;;4972150;28;20430;-73
2023/12/25 08:00:49;;;;;;;;;;;24.20;99.90;;;;;;4972114;28;19911;-74
2023/12/25 08:03:16;;;;;;;;;;;24.30;99.90;;;;;;4972015;28;19915;-74
2023/12/25 08:05:43;;;;;;;;;;;24.30;99.90;;;;;;4972390;28;19910;-75
2023/12/25 08:08:09;;;;;;;;;;;24.40;99.90;;;;;;4971877;28;19971;-74
2023/12/25 08:10:37;;;;;;;;;;;24.40;99.90;;;;;;4972268;28;20378;-73
2023/12/25 08:13:04;;;;;;;;;;;24.30;99.90;;;;;;4972312;28;19917;-73
2023/12/25 08:15:30;;;;;;;;;;;24.40;99.90;;;;;;4971929;28;19944;-72
2023/12/25 08:17:59;;;;;;;;;;;24.40;99.90;;;;;;4972289;28;19922;-74
2023/12/25 08:20:25;;;;;;;;;;;24.40;99.90;;;;;;4972181;28;19928;-76
2023/12/25 08:22:52;;;;;;;;;;;24.50;99.90;;;;;;4970621;28;19922;-73
2023/12/25 08:25:18;;;;;;;;;;;24.50;99.90;;;;;;4971971;28;19946;-74
2023/12/25 08:27:50;;;;;;;;;;;24.60;99.90;;;;;;4971298;28;20269;-72
2023/12/25 08:30:17;;;;;;;;;;;24.60;99.90;;;;;;4971834;28;19921;-72
2023/12/25 08:32:43;;;;;;;;;;;24.60;99.90;;;;;;4970927;28;19977;-74
2023/12/25 08:35:10;;;;;;;;;;;24.60;99.90;;;;;;4971841;28;20001;-74
2023/12/25 08:37:37;;;;;;;;;;;24.60;99.90;;;;;;4952600;28;19919;-73
2023/12/25 08:40:04;;;;;;;;;;;24.50;99.90;;;;;;4952652;28;19918;-72
2023/12/25 08:42:30;;;;;;;;;;;24.50;99.90;;;;;;4952503;28;19915;-74
2023/12/25 08:44:57;;;;;;;;;;;24.50;99.90;;;;;;4965408;28;19922;-73
2023/12/25 08:47:25;;;;;;;;;;;24.50;99.90;;;;;;4971947;28;20304;-73
2023/12/25 08:49:52;;;;;;;;;;;24.40;99.90;;;;;;4971987;28;19963;-74
2023/12/25 08:52:20;;;;;;;;;;;24.30;99.90;;;;;;4971444;28;19915;-74
2023/12/25 08:54:46;;;;;;;;;;;24.30;99.90;;;;;;4970966;28;20550;-73
2023/12/25 08:57:13;;;;;;;;;;;24.30;99.90;;;;;;4971541;28;19918;-73
2023/12/25 08:59:40;;;;;;;;;;;24.20;99.90;;;;;;4971613;28;19997;-73
2023/12/25 09:02:06;;;;;;;;;;;24.20;99.90;;;;;;4971307;28;19910;-74
2023/12/25 09:04:33;;;;;;;;;;;24.10;99.90;;;;;;4971632;28;19914;-73
2023/12/25 09:06:59;;;;;;;;;;;24.00;99.90;;;;;;4971642;28;19911;-73
2023/12/25 09:09:26;;;;;;;;;;;24.00;99.90;;;;;;4971190;28;19914;-73
2023/12/25 09:11:53;;;;;;;;;;;23.90;99.90;;;;;;4971305;28;19979;-74
2023/12/25 09:14:20;;;;;;;;;;;23.90;99.90;;;;;;4971361;28;19914;-71
2023/12/25 09:16:47;;;;;;;;;;;23.90;99.90;;;;;;4971068;28;19918;-72
2023/12/25 09:19:13;;;;;;;;;;;24.00;99.90;;;;;;4970671;28;19915;-75
2023/12/25 09:21:40;;;;;;;;;;;24.00;99.90;;;;;;4970904;28;19914;-74
2023/12/25 09:24:07;;;;;;;;;;;24.00;99.90;;;;;;4970766;28;20275;-73
2023/12/25 09:26:34;;;;;;;;;;;24.00;99.90;;;;;;4971427;28;20388;-75
2023/12/25 09:29:00;;;;;;;;;;;24.00;99.90;;;;;;4971135;28;19919;-72
2023/12/25 09:31:27;;;;;;;;;;;24.00;99.90;;;;;;4971247;28;19956;-72
2023/12/25 09:33:54;;;;;;;;;;;24.00;99.90;;;;;;4970942;28;19922;-72
2023/12/25 09:36:20;;;;;;;;;;;24.00;99.90;;;;;;4971206;28;19918;-72
2023/12/25 09:38:47;;;;;;;;;;;24.00;99.90;;;;;;4971174;28;19910;-77
2023/12/25 09:41:14;;;;;;;;;;;24.00;99.90;;;;;;4970291;28;20440;-73
2023/12/25 09:43:45;;;;;;;;;;;24.00;99.90;;;;;;4970384;28;19925;-77
2023/12/25 09:46:12;;;;;;;;;;;24.00;99.90;;;;;;4971077;28;19910;-72
2023/12/25 09:48:41;;;;;;;;;;;24.00;99.90;;;;;;4971030;28;20356;-74
2023/12/25 09:51:09;;;;;;;;;;;24.10;99.90;;;;;;4970653;28;20021;-75
2023/12/25 09:53:36;;;;;;;;;;;24.10;99.90;;;;;;4970714;28;19910;-72
2023/12/25 09:56:04;;;;;;;;;;;24.10;99.90;;;;;;4970841;28;19914;-74
2023/12/25 09:58:33;;;;;;;;;;;24.10;99.90;;;;;;4969350;28;19967;-72
2023/12/25 10:00:59;;;;;;;;;;;24.00;99.90;;;;;;4970791;28;19917;-75
2023/12/25 10:03:26;;;;;;;;;;;24.00;99.90;;;;;;4970880;28;19918;-72
2023/12/25 10:05:53;;;;;;;;;;;24.00;99.90;;;;;;4970894;28;19949;-73
2023/12/25 10:08:20;;;;;;;;;;;24.00;99.90;;;;;;4970891;28;19949;-76
2023/12/25 10:10:46;;;;;;;;;;;24.00;99.90;;;;;;4970455;28;19916;-72
2023/12/25 10:13:13;;;;;;;;;;;23.90;99.90;;;;;;4970666;28;20317;-75
2023/12/25 10:15:40;;;;;;;;;;;24.00;99.90;;;;;;4970796;28;19914;-75
2023/12/25 10:18:08;;;;;;;;;;;24.00;99.90;;;;;;4954570;28;20005;-75
2023/12/25 10:20:35;;;;;;;;;;;23.90;99.90;;;;;;4951617;28;19910;-73
2023/12/25 10:23:10;;;;;;;;;;;23.90;99.90;;;;;;4960318;28;20040;-75
2023/12/25 10:25:42;;;;;;;;;;;23.80;99.90;;;;;;4970851;28;20252;-75
2023/12/25 10:28:12;;;;;;;;;;;23.90;99.90;;;;;;4970661;28;19911;-74
2023/12/25 10:30:38;;;;;;;;;;;23.80;99.90;;;;;;4970634;28;20407;-73
2023/12/25 10:33:10;;;;;;;;;;;23.80;99.90;;;;;;4973856;28;20035;-76
2023/12/25 10:35:37;;;;;;;;;;;23.80;99.90;;;;;;4973802;28;19914;-75
2023/12/25 10:38:05;;;;;;;;;;;23.80;99.90;;;;;;4958279;28;20283;-74
2023/12/25 10:40:32;;;;;;;;;;;23.90;99.90;;;;;;4954304;28;19914;-72
2023/12/25 10:42:59;;;;;;;;;;;23.90;99.90;;;;;;4954379;28;19915;-74
2023/12/25 10:45:27;;;;;;;;;;;23.90;99.90;;;;;;4964006;28;19914;-74
2023/12/25 10:47:53;;;;;;;;;;;24.00;99.90;;;;;;4973522;28;20008;-75
2023/12/25 10:50:21;;;;;;;;;;;24.00;99.90;;;;;;4973505;28;20317;-75
2023/12/25 10:52:51;;;;;;;;;;;24.00;99.90;;;;;;4968491;28;19922;-78
2023/12/25 10:55:24;;;;;;;;;;;24.10;99.90;;;;;;4954102;28;19964;-73
2023/12/25 10:57:51;;;;;;;;;;;24.10;99.90;;;;;;4967398;28;19958;-74
2023/12/25 11:00:20;;;;;;;;;;;24.10;99.90;;;;;;4973432;28;19918;-73
2023/12/25 11:02:48;;;;;;;;;;;24.00;99.90;;;;;;4973007;28;20355;-73
2023/12/25 11:05:15;;;;;;;;;;;24.10;99.90;;;;;;4973218;28;20010;-72
2023/12/25 11:07:41;;;;;;;;;;;24.10;99.90;;;;;;4973112;28;20000;-74
2023/12/25 11:10:10;;;;;;;;;;;24.10;99.90;;;;;;4973014;28;19956;-72
2023/12/25 11:12:37;;;;;;;;;;;24.10;99.90;;;;;;4966007;28;19914;-75
2023/12/25 11:15:04;;;;;;;;;;;24.20;99.90;;;;;;4953726;28;19956;-72
2023/12/25 11:17:31;;;;;;;;;;;24.20;99.90;;;;;;4961433;28;19926;-75
2023/12/25 11:19:57;;;;;;;;;;;24.20;99.90;;;;;;4971276;28;19914;-73
2023/12/25 11:22:28;;;;;;;;;;;24.20;99.90;;;;;;4972842;28;19997;-73
2023/12/25 11:25:00;;;;;;;;;;;24.10;99.90;;;;;;4972735;28;19941;-75
2023/12/25 11:27:26;;;;;;;;;;;24.00;99.90;;;;;;4971720;28;20008;-74
2023/12/25 11:30:00;;;;;;;;;;;23.90;99.90;;;;;;4972886;28;19910;-72
2023/12/25 11:32:28;;;;;;;;;;;23.80;99.90;;;;;;4972585;28;19910;-74
2023/12/25 11:34:56;;;;;;;;;;;23.80;99.90;;;;;;4972921;28;19996;-75
2023/12/25 11:37:25;;;;;;;;;;;23.80;99.90;;;;;;4966829;28;20018;-79
2023/12/25 11:39:54;;;;;;;;;;;23.80;99.90;;;;;;4953466;28;19911;-78
2023/12/25 11:42:21;;;;;;;;;;;23.80;99.90;;;;;;4971954;28;19914;-72
2023/12/25 11:44:48;;;;;;;;;;;23.70;99.90;;;;;;4972480;28;19929;-78
2023/12/25 11:47:25;;;;;;;;;;;23.70;99.90;;;;;;4972732;28;19996;-79
2023/12/25 11:49:54;;;;;;;;;;;23.70;99.90;;;;;;4972549;28;20367;-77
2023/12/25 11:52:39;;;;;;;;;;;23.70;99.90;;;;;;4971033;28;19918;-72
2023/12/25 11:55:08;;;;;;;;;;;23.60;99.90;;;;;;4971130;28;20259;-76
2023/12/25 11:57:34;;;;;;;;;;;23.60;99.90;;;;;;4971893;28;19972;-74
2023/12/25 12:00:02;;;;;;;;;;;23.60;99.90;;;;;;4957764;28;20393;-73
2023/12/25 12:02:29;;;;;;;;;;;23.60;99.90;;;;;;4965400;28;19914;-75
2023/12/25 12:04:56;;;;;;;;;;;23.60;99.90;;;;;;4971391;28;19930;-73
2023/12/25 12:07:22;;;;;;;;;;;23.60;99.90;;;;;;4966022;28;19915;-74
2023/12/25 12:09:49;;;;;;;;;;;23.60;99.90;;;;;;4961542;28;20374;-75
2023/12/25 12:12:16;;;;;;;;;;;23.50;99.90;;;;;;4954949;28;20011;-76
2023/12/25 12:14:43;;;;;;;;;;;23.50;99.90;;;;;;4952358;28;19911;-73
2023/12/25 12:17:10;;;;;;;;;;;23.50;99.90;;;;;;4961487;28;19922;-75
2023/12/25 12:19:37;;;;;;;;;;;23.50;99.90;;;;;;4969344;28;19922;-75
2023/12/25 12:22:04;;;;;;;;;;;23.50;99.90;;;;;;5020421;28;20373;-70
2023/12/25 12:24:30;;;;;;;;;;;23.50;99.90;;;;;;5071594;28;19909;-73
2023/12/25 12:27:04;;;;;;;;;;;23.50;99.90;;;;;;5037296;28;20260;-74
2023/12/25 12:29:31;;;;;;;;;;;23.50;99.90;;;;;;5000503;28;19916;-72
2023/12/25 12:31:58;;;;;;;;;;;23.50;99.90;;;;;;4976197;28;20291;-75
2023/12/25 12:34:24;;;;;;;;;;;23.50;99.90;;;;;;4971439;28;19910;-75
2023/12/25 12:37:07;;;;;;;;;;;23.50;99.90;;;;;;4971277;28;19926;-74
2023/12/25 12:39:34;;;;;;;;;;;23.40;99.90;;;;;;4971474;28;20371;-73
2023/12/25 12:42:01;;;;;;;;;;;23.40;99.90;;;;;;4971588;28;20336;-74
2023/12/25 12:44:28;;;;;;;;;;;23.30;99.90;;;;;;4970544;28;19911;-75
2023/12/25 12:46:54;;;;;;;;;;;23.30;99.90;;;;;;4971901;28;20382;-75
2023/12/25 12:49:21;;;;;;;;;;;23.30;99.90;;;;;;4971672;28;20337;-74
2023/12/25 12:51:48;;;;;;;;;;;23.30;99.90;;;;;;4971144;28;20374;-75
2023/12/25 12:54:15;;;;;;;;;;;23.20;99.90;;;;;;4971728;28;19918;-76
2023/12/25 12:56:41;;;;;;;;;;;23.20;99.90;;;;;;4971403;28;19922;-76
2023/12/25 12:59:08;;;;;;;;;;;23.20;99.90;;;;;;4971604;28;19911;-73
2023/12/25 13:01:35;;;;;;;;;;;23.20;99.90;;;;;;4970682;28;19946;-72
2023/12/25 13:04:01;;;;;;;;;;;23.20;99.90;;;;;;4971381;28;19949;-73
2023/12/25 13:06:28;;;;;;;;;;;23.10;99.90;;;;;;4971383;28;19917;-72
2023/12/25 13:08:55;;;;;;;;;;;23.10;99.90;;;;;;4971398;28;20384;-74
2023/12/25 13:11:25;;;;;;;;;;;23.10;99.90;;;;;;4971158;28;19910;-71
2023/12/25 13:13:52;;;;;;;;;;;23.10;99.90;;;;;;4952161;28;19961;-75
2023/12/25 13:16:19;;;;;;;;;;;23.00;99.90;;;;;;4955641;28;19914;-74
2023/12/25 13:18:48;;;;;;;;;;;23.00;99.90;;;;;;4971498;28;19922;-74
2023/12/25 13:21:15;;;;;;;;;;;23.10;99.90;;;;;;4971294;28;19946;-74
2023/12/25 13:23:42;;;;;;;;;;;23.10;99.90;;;;;;4971030;28;19928;-75
2023/12/25 13:26:09;;;;;;;;;;;23.20;99.90;;;;;;4971052;28;19915;-75
2023/12/25 13:28:36;;;;;;;;;;;23.10;99.90;;;;;;4971056;28;20414;-75
2023/12/25 13:31:02;;;;;;;;;;;23.20;99.90;;;;;;4970745;28;20013;-73
2023/12/25 13:33:29;;;;;;;;;;;23.10;99.90;;;;;;4969454;28;19958;-75
2023/12/25 13:35:55;;;;;;;;;;;23.10;99.90;;;;;;4970752;28;19993;-76
2023/12/25 13:38:23;;;;;;;;;;;23.10;99.90;;;;;;4971016;28;19932;-73
2023/12/25 13:40:50;;;;;;;;;;;23.10;99.90;;;;;;4971001;28;19910;-75
2023/12/25 13:43:16;;;;;;;;;;;23.10;99.90;;;;;;4970178;28;19914;-73
2023/12/25 13:45:43;;;;;;;;;;;23.10;99.90;;;;;;4969818;28;19968;-74
2023/12/25 13:48:10;;;;;;;;;;;23.10;99.90;;;;;;4971051;28;19910;-71
2023/12/25 13:50:36;;;;;;;;;;;23.10;99.90;;;;;;4971000;28;19956;-75
2023/12/25 13:53:03;;;;;;;;;;;23.10;99.90;;;;;;4969904;28;19986;-75
2023/12/25 13:55:30;;;;;;;;;;;23.10;99.90;;;;;;4970092;28;19914;-74
2023/12/25 13:57:56;;;;;;;;;;;23.10;99.90;;;;;;4970903;28;19964;-73
2023/12/25 14:00:23;;;;;;;;;;;23.00;99.90;;;;;;4970753;28;19956;-74
2023/12/25 14:02:51;;;;;;;;;;;22.90;99.90;;;;;;4970925;28;19911;-76
2023/12/25 14:05:17;;;;;;;;;;;22.90;99.90;;;;;;4970857;28;19993;-76
2023/12/25 14:07:44;;;;;;;;;;;22.90;99.90;;;;;;4972529;28;19914;-76
2023/12/25 14:10:11;;;;;;;;;;;22.90;99.90;;;;;;4974153;28;19921;-75
2023/12/25 14:12:38;;;;;;;;;;;22.80;99.90;;;;;;4973537;28;19921;-74
2023/12/25 14:15:06;;;;;;;;;;;22.70;99.90;;;;;;4974451;28;19918;-76